sensor_id;sensor_type;location;lat;lon;timestamp;pressure;altitude;pressure_sealevel;temperature;humidity
48553;BME280;34335;51.566;6.994;2023-02-14T00:01:39;102926.72;;;3.13;100.00
48553;BME280;34335;51.566;6.994;2023-02-14T00:04:04;102920.88;;;3.16;100.00
48553;BME280;34335;51.566;6.994;2023-02-14T00:06:31;102919.72;;;3.10;100.00
48553;BME280;34335;51.566;6.994;2023-02-14T00:09:00;102927.59;;;3.00;100.00
48553;BME280;34335;51.566;6.994;2023-02-14T00:11:25;102923.25;;;2.99;100.00
48553;BME280;34335;51.566;6.994;2023-02-14T00:13:50;102922.47;;;3.00;100.00
48553;BME280;34335;51.566;6.994;2023-02-14T00:16:34;102919.78;;;2.99;100.00
48553;BME280;34335;51.566;6.994;2023-02-14T00:18:59;102908.41;;;2.95;100.00
48553;BME280;34335;51.566;6.994;2023-02-14T00:21:28;102909.50;;;2.85;100.00
48553;BME280;34335;51.566;6.994;2023-02-14T00:23:53;102911.88;;;2.95;100.00
48553;BME280;34335;51.566;6.994;2023-02-14T00:26:18;102910.19;;;2.83;100.00
48553;BME280;34335;51.566;6.994;2023-02-14T00:28:44;102914.91;;;2.76;100.00
48553;BME280;34335;51.566;6.994;2023-02-14T00:31:09;102909.75;;;2.76;100.00
48553;BME280;34335;51.566;6.994;2023-02-14T00:33:35;102912.16;;;2.73;100.00
48553;BME280;34335;51.566;6.994;2023-02-14T00:36:05;102904.69;;;2.64;100.00
48553;BME280;34335;51.566;6.994;2023-02-14T00:38:31;102903.63;;;2.61;100.00
48553;BME280;34335;51.566;6.994;2023-02-14T00:40:57;102908.53;;;2.58;100.00
48553;BME280;34335;51.566;6.994;2023-02-14T00:43:23;102904.09;;;2.55;100.00
48553;BME280;34335;51.566;6.994;2023-02-14T00:45:48;102909.22;;;2.55;100.00
48553;BME280;34335;51.566;6.994;2023-02-14T00:48:13;102908.03;;;2.50;100.00
48553;BME280;34335;51.566;6.994;2023-02-14T00:50:39;102904.34;;;2.46;100.00
48553;BME280;34335;51.566;6.994;2023-02-14T00:53:04;102901.03;;;2.61;100.00
48553;BME280;34335;51.566;6.994;2023-02-14T00:55:29;102903.00;;;2.52;100.00
48553;BME280;34335;51.566;6.994;2023-02-14T00:57:54;102912.19;;;2.48;100.00
48553;BME280;34335;51.566;6.994;2023-02-14T01:00:21;102911.09;;;2.44;100.00
48553;BME280;34335;51.566;6.994;2023-02-14T01:02:46;102912.78;;;2.57;100.00
48553;BME280;34335;51.566;6.994;2023-02-14T01:05:11;102915.84;;;2.52;100.00
48553;BME280;34335;51.566;6.994;2023-02-14T01:07:37;102920.81;;;2.37;100.00
48553;BME280;34335;51.566;6.994;2023-02-14T01:10:02;102921.50;;;2.34;100.00
48553;BME280;34335;51.566;6.994;2023-02-14T01:12:27;102916.06;;;2.29;100.00
48553;BME280;34335;51.566;6.994;2023-02-14T01:14:52;102919.34;;;2.40;100.00
48553;BME280;34335;51.566;6.994;2023-02-14T01:17:18;102916.56;;;2.37;100.00
48553;BME280;34335;51.566;6.994;2023-02-14T01:19:43;102909.81;;;2.26;100.00
48553;BME280;34335;51.566;6.994;2023-02-14T01:22:09;102903.00;;;2.52;100.00
48553;BME280;34335;51.566;6.994;2023-02-14T01:24:34;102908.22;;;2.28;100.00
48553;BME280;34335;51.566;6.994;2023-02-14T01:26:59;102901.59;;;2.18;100.00
48553;BME280;34335;51.566;6.994;2023-02-14T01:29:25;102903.72;;;2.37;100.00
48553;BME280;34335;51.566;6.994;2023-02-14T01:31:50;102908.84;;;2.37;100.00
48553;BME280;34335;51.566;6.994;2023-02-14T01:34:15;102899.56;;;2.26;100.00
48553;BME280;34335;51.566;6.994;2023-02-14T01:36:40;102904.53;;;2.11;100.00
48553;BME280;34335;51.566;6.994;2023-02-14T01:39:10;102903.56;;;1.97;100.00
48553;BME280;34335;51.566;6.994;2023-02-14T01:41:37;102905.53;;;2.01;100.00
48553;BME280;34335;51.566;6.994;2023-02-14T01:44:06;102906.78;;;2.06;100.00
48553;BME280;34335;51.566;6.994;2023-02-14T01:46:36;102914.97;;;2.26;100.00
48553;BME280;34335;51.566;6.994;2023-02-14T01:49:08;102898.44;;;1.97;100.00
48553;BME280;34335;51.566;6.994;2023-02-14T01:51:38;102904.22;;;1.94;100.00
48553;BME280;34335;51.566;6.994;2023-02-14T01:54:07;102900.91;;;1.83;100.00
48553;BME280;34335;51.566;6.994;2023-02-14T01:56:36;102902.63;;;1.71;100.00
48553;BME280;34335;51.566;6.994;2023-02-14T01:59:05;102906.31;;;1.63;100.00
48553;BME280;34335;51.566;6.994;2023-02-14T02:01:32;102910.44;;;1.61;100.00
48553;BME280;34335;51.566;6.994;2023-02-14T02:04:02;102900.94;;;1.60;100.00
48553;BME280;34335;51.566;6.994;2023-02-14T02:06:35;102900.84;;;1.58;100.00
48553;BME280;34335;51.566;6.994;2023-02-14T02:09:14;102897.38;;;1.69;100.00
48553;BME280;34335;51.566;6.994;2023-02-14T02:11:41;102899.84;;;1.56;100.00
48553;BME280;34335;51.566;6.994;2023-02-14T02:14:13;102890.03;;;1.50;100.00
48553;BME280;34335;51.566;6.994;2023-02-14T02:23:17;102887.94;;;1.57;100.00
48553;BME280;34335;51.566;6.994;2023-02-14T02:28:10;102877.56;;;1.43;100.00
48553;BME280;34335;51.566;6.994;2023-02-14T02:39:45;102869.88;;;1.43;100.00
48553;BME280;34335;51.566;6.994;2023-02-14T02:42:32;102865.41;;;1.52;100.00
48553;BME280;34335;51.566;6.994;2023-02-14T02:50:21;102862.31;;;1.33;100.00
48553;BME280;34335;51.566;6.994;2023-02-14T02:53:10;102855.50;;;1.21;100.00
48553;BME280;34335;51.566;6.994;2023-02-14T02:58:34;102856.31;;;1.08;100.00
48553;BME280;34335;51.566;6.994;2023-02-14T03:01:05;102861.09;;;1.16;100.00
48553;BME280;34335;51.566;6.994;2023-02-14T03:03:34;102859.25;;;1.50;100.00
48553;BME280;34335;51.566;6.994;2023-02-14T03:06:18;102854.91;;;1.49;100.00
48553;BME280;34335;51.566;6.994;2023-02-14T03:08:43;102860.94;;;1.50;100.00
48553;BME280;34335;51.566;6.994;2023-02-14T03:11:11;102859.88;;;1.34;100.00
48553;BME280;34335;51.566;6.994;2023-02-14T03:13:43;102854.09;;;1.25;100.00
48553;BME280;34335;51.566;6.994;2023-02-14T03:16:49;102861.31;;;1.07;100.00
48553;BME280;34335;51.566;6.994;2023-02-14T03:19:38;102858.88;;;0.97;100.00
48553;BME280;34335;51.566;6.994;2023-02-14T03:22:48;102854.97;;;1.02;100.00
48553;BME280;34335;51.566;6.994;2023-02-14T03:28:19;102853.63;;;0.83;100.00
48553;BME280;34335;51.566;6.994;2023-02-14T03:33:24;102854.63;;;1.33;100.00
48553;BME280;34335;51.566;6.994;2023-02-14T03:36:10;102855.53;;;1.09;100.00
48553;BME280;34335;51.566;6.994;2023-02-14T03:38:45;102866.53;;;1.44;100.00
48553;BME280;34335;51.566;6.994;2023-02-14T03:41:17;102863.78;;;1.17;100.00
48553;BME280;34335;51.566;6.994;2023-02-14T03:43:48;102858.34;;;1.01;100.00
48553;BME280;34335;51.566;6.994;2023-02-14T03:46:19;102861.53;;;0.86;100.00
48553;BME280;34335;51.566;6.994;2023-02-14T03:48:48;102866.53;;;0.73;100.00
48553;BME280;34335;51.566;6.994;2023-02-14T03:51:17;102867.78;;;0.78;100.00
48553;BME280;34335;51.566;6.994;2023-02-14T03:53:46;102871.59;;;1.07;100.00
48553;BME280;34335;51.566;6.994;2023-02-14T03:56:30;102873.66;;;1.36;100.00
48553;BME280;34335;51.566;6.994;2023-02-14T03:58:57;102871.94;;;1.00;100.00
48553;BME280;34335;51.566;6.994;2023-02-14T04:01:52;102869.13;;;1.08;100.00
48553;BME280;34335;51.566;6.994;2023-02-14T04:04:19;102868.00;;;1.29;100.00
48553;BME280;34335;51.566;6.994;2023-02-14T04:06:45;102872.47;;;1.31;100.00
48553;BME280;34335;51.566;6.994;2023-02-14T04:09:10;102873.00;;;0.80;100.00
48553;BME280;34335;51.566;6.994;2023-02-14T04:11:35;102865.97;;;0.65;100.00
48553;BME280;34335;51.566;6.994;2023-02-14T04:14:03;102857.63;;;0.80;100.00
48553;BME280;34335;51.566;6.994;2023-02-14T04:16:29;102858.41;;;0.78;100.00
48553;BME280;34335;51.566;6.994;2023-02-14T04:18:54;102848.28;;;0.80;100.00
48553;BME280;34335;51.566;6.994;2023-02-14T04:21:38;102853.59;;;0.59;100.00
48553;BME280;34335;51.566;6.994;2023-02-14T04:24:04;102848.06;;;0.65;100.00
48553;BME280;34335;51.566;6.994;2023-02-14T04:26:29;102853.34;;;0.44;100.00
48553;BME280;34335;51.566;6.994;2023-02-14T04:28:55;102855.13;;;0.34;100.00
48553;BME280;34335;51.566;6.994;2023-02-14T04:31:20;102858.44;;;0.33;100.00
48553;BME280;34335;51.566;6.994;2023-02-14T04:33:45;102855.31;;;0.37;100.00
48553;BME280;34335;51.566;6.994;2023-02-14T04:36:12;102852.16;;;0.51;100.00
48553;BME280;34335;51.566;6.994;2023-02-14T04:38:38;102848.34;;;0.58;100.00
48553;BME280;34335;51.566;6.994;2023-02-14T04:41:03;102842.59;;;0.72;100.00
48553;BME280;34335;51.566;6.994;2023-02-14T04:43:28;102849.16;;;0.57;100.00
48553;BME280;34335;51.566;6.994;2023-02-14T04:45:54;102846.81;;;0.60;100.00
48553;BME280;34335;51.566;6.994;2023-02-14T04:48:19;102849.69;;;0.65;100.00
48553;BME280;34335;51.566;6.994;2023-02-14T04:50:50;102847.91;;;0.52;100.00
48553;BME280;34335;51.566;6.994;2023-02-14T04:53:15;102834.47;;;0.66;100.00
48553;BME280;34335;51.566;6.994;2023-02-14T04:55:43;102842.06;;;0.76;100.00
48553;BME280;34335;51.566;6.994;2023-02-14T04:58:08;102831.91;;;0.78;100.00
48553;BME280;34335;51.566;6.994;2023-02-14T05:00:34;102835.28;;;1.01;100.00
48553;BME280;34335;51.566;6.994;2023-02-14T05:02:59;102831.34;;;0.70;100.00
48553;BME280;34335;51.566;6.994;2023-02-14T05:05:24;102827.31;;;0.38;100.00
48553;BME280;34335;51.566;6.994;2023-02-14T05:07:49;102817.53;;;0.56;100.00
48553;BME280;34335;51.566;6.994;2023-02-14T05:10:15;102827.22;;;0.60;100.00
48553;BME280;34335;51.566;6.994;2023-02-14T05:12:40;102808.97;;;0.68;100.00
48553;BME280;34335;51.566;6.994;2023-02-14T05:15:06;102819.09;;;0.66;100.00
48553;BME280;34335;51.566;6.994;2023-02-14T05:17:31;102817.00;;;0.26;100.00
48553;BME280;34335;51.566;6.994;2023-02-14T05:19:56;102821.69;;;0.20;100.00
48553;BME280;34335;51.566;6.994;2023-02-14T05:22:22;102826.59;;;0.29;100.00
48553;BME280;34335;51.566;6.994;2023-02-14T05:24:47;102816.56;;;0.20;100.00
48553;BME280;34335;51.566;6.994;2023-02-14T05:27:12;102821.00;;;0.11;100.00
48553;BME280;34335;51.566;6.994;2023-02-14T05:29:38;102819.28;;;0.45;100.00
48553;BME280;34335;51.566;6.994;2023-02-14T05:32:03;102805.53;;;0.79;100.00
48553;BME280;34335;51.566;6.994;2023-02-14T05:34:28;102807.53;;;0.95;100.00
48553;BME280;34335;51.566;6.994;2023-02-14T05:36:54;102808.19;;;0.81;100.00
48553;BME280;34335;51.566;6.994;2023-02-14T05:39:19;102814.88;;;1.02;100.00
48553;BME280;34335;51.566;6.994;2023-02-14T05:41:44;102807.44;;;0.24;100.00
48553;BME280;34335;51.566;6.994;2023-02-14T05:44:10;102806.31;;;0.08;100.00
48553;BME280;34335;51.566;6.994;2023-02-14T05:46:35;102810.94;;;0.48;100.00
48553;BME280;34335;51.566;6.994;2023-02-14T05:49:00;102813.91;;;0.19;100.00
48553;BME280;34335;51.566;6.994;2023-02-14T05:51:26;102807.41;;;0.12;100.00
48553;BME280;34335;51.566;6.994;2023-02-14T05:53:51;102807.41;;;0.12;100.00
48553;BME280;34335;51.566;6.994;2023-02-14T05:56:16;102809.34;;;0.26;100.00
48553;BME280;34335;51.566;6.994;2023-02-14T05:58:42;102804.56;;;0.31;100.00
48553;BME280;34335;51.566;6.994;2023-02-14T06:01:07;102801.03;;;0.53;100.00
48553;BME280;34335;51.566;6.994;2023-02-14T06:03:33;102803.03;;;0.45;100.00
48553;BME280;34335;51.566;6.994;2023-02-14T06:05:58;102806.94;;;0.40;100.00
48553;BME280;34335;51.566;6.994;2023-02-14T06:08:23;102810.25;;;0.39;100.00
48553;BME280;34335;51.566;6.994;2023-02-14T06:10:49;102808.28;;;0.12;100.00
48553;BME280;34335;51.566;6.994;2023-02-14T06:13:14;102820.94;;;-0.01;100.00
48553;BME280;34335;51.566;6.994;2023-02-14T06:15:39;102817.16;;;0.28;100.00
48553;BME280;34335;51.566;6.994;2023-02-14T06:18:05;102828.28;;;-0.06;100.00
48553;BME280;34335;51.566;6.994;2023-02-14T06:20:30;102831.63;;;0.05;100.00
48553;BME280;34335;51.566;6.994;2023-02-14T06:22:55;102827.56;;;-0.15;100.00
48553;BME280;34335;51.566;6.994;2023-02-14T06:25:22;102837.09;;;0.10;100.00
48553;BME280;34335;51.566;6.994;2023-02-14T06:27:47;102834.03;;;-0.08;100.00
48553;BME280;34335;51.566;6.994;2023-02-14T06:30:13;102836.44;;;0.12;100.00
48553;BME280;34335;51.566;6.994;2023-02-14T06:32:39;102836.22;;;-0.13;100.00
48553;BME280;34335;51.566;6.994;2023-02-14T06:35:05;102839.19;;;-0.19;100.00
48553;BME280;34335;51.566;6.994;2023-02-14T06:37:31;102836.00;;;-0.16;100.00
48553;BME280;34335;51.566;6.994;2023-02-14T06:39:56;102845.25;;;0.16;100.00
48553;BME280;34335;51.566;6.994;2023-02-14T06:42:22;102849.19;;;0.01;100.00
48553;BME280;34335;51.566;6.994;2023-02-14T06:44:47;102852.44;;;-0.24;100.00
48553;BME280;34335;51.566;6.994;2023-02-14T06:47:13;102850.16;;;-0.32;100.00
48553;BME280;34335;51.566;6.994;2023-02-14T06:49:38;102846.41;;;0.32;100.00
48553;BME280;34335;51.566;6.994;2023-02-14T06:52:04;102855.81;;;-0.13;100.00
48553;BME280;34335;51.566;6.994;2023-02-14T06:54:30;102852.53;;;-0.01;100.00
48553;BME280;34335;51.566;6.994;2023-02-14T06:56:55;102851.53;;;0.32;100.00
48553;BME280;34335;51.566;6.994;2023-02-14T06:59:21;102847.78;;;0.38;100.00
48553;BME280;34335;51.566;6.994;2023-02-14T07:01:46;102850.28;;;0.26;100.00
48553;BME280;34335;51.566;6.994;2023-02-14T07:04:11;102859.38;;;-0.11;100.00
48553;BME280;34335;51.566;6.994;2023-02-14T07:06:37;102855.34;;;-0.20;100.00
48553;BME280;34335;51.566;6.994;2023-02-14T07:09:02;102852.00;;;-0.19;100.00
48553;BME280;34335;51.566;6.994;2023-02-14T07:11:28;102854.44;;;-0.42;100.00
48553;BME280;34335;51.566;6.994;2023-02-14T07:13:53;102852.28;;;-0.26;100.00
48553;BME280;34335;51.566;6.994;2023-02-14T07:16:19;102846.41;;;-0.25;100.00
48553;BME280;34335;51.566;6.994;2023-02-14T07:18:44;102854.44;;;-0.20;100.00
48553;BME280;34335;51.566;6.994;2023-02-14T07:21:09;102853.72;;;-0.29;100.00
48553;BME280;34335;51.566;6.994;2023-02-14T07:23:34;102856.84;;;-0.11;100.00
48553;BME280;34335;51.566;6.994;2023-02-14T07:26:00;102856.16;;;-0.53;100.00
48553;BME280;34335;51.566;6.994;2023-02-14T07:28:26;102856.09;;;-0.43;100.00
48553;BME280;34335;51.566;6.994;2023-02-14T07:30:51;102852.28;;;-0.48;100.00
48553;BME280;34335;51.566;6.994;2023-02-14T07:33:16;102860.22;;;-0.23;100.00
48553;BME280;34335;51.566;6.994;2023-02-14T07:35:42;102853.72;;;-0.07;100.00
48553;BME280;34335;51.566;6.994;2023-02-14T07:38:07;102859.31;;;-0.23;100.00
48553;BME280;34335;51.566;6.994;2023-02-14T07:40:32;102854.06;;;-0.03;100.00
48553;BME280;34335;51.566;6.994;2023-02-14T07:42:58;102852.19;;;-0.05;100.00
48553;BME280;34335;51.566;6.994;2023-02-14T07:45:25;102842.75;;;0.06;100.00
48553;BME280;34335;51.566;6.994;2023-02-14T07:47:53;102842.88;;;0.53;100.00
48553;BME280;34335;51.566;6.994;2023-02-14T07:50:20;102843.94;;;0.21;100.00
48553;BME280;34335;51.566;6.994;2023-02-14T07:52:46;102857.09;;;-0.19;100.00
48553;BME280;34335;51.566;6.994;2023-02-14T07:55:12;102846.88;;;0.38;100.00
48553;BME280;34335;51.566;6.994;2023-02-14T07:57:37;102848.06;;;0.65;100.00
48553;BME280;34335;51.566;6.994;2023-02-14T08:00:05;102846.16;;;0.63;100.00
48553;BME280;34335;51.566;6.994;2023-02-14T08:02:31;102846.84;;;0.96;100.00
48553;BME280;34335;51.566;6.994;2023-02-14T08:04:56;102851.16;;;1.20;100.00
48553;BME280;34335;51.566;6.994;2023-02-14T08:07:21;102842.56;;;1.32;100.00
48553;BME280;34335;51.566;6.994;2023-02-14T08:09:46;102844.56;;;1.48;100.00
48553;BME280;34335;51.566;6.994;2023-02-14T08:12:12;102853.94;;;1.47;100.00
48553;BME280;34335;51.566;6.994;2023-02-14T08:14:55;102851.44;;;1.73;100.00
48553;BME280;34335;51.566;6.994;2023-02-14T08:17:41;102849.75;;;1.73;100.00
48553;BME280;34335;51.566;6.994;2023-02-14T08:20:06;102850.56;;;1.97;100.00
48553;BME280;34335;51.566;6.994;2023-02-14T08:22:32;102847.75;;;1.94;100.00
48553;BME280;34335;51.566;6.994;2023-02-14T08:24:57;102842.69;;;2.08;100.00
48553;BME280;34335;51.566;6.994;2023-02-14T08:27:22;102839.81;;;2.42;100.00
48553;BME280;34335;51.566;6.994;2023-02-14T08:29:48;102837.03;;;2.64;100.00
48553;BME280;34335;51.566;6.994;2023-02-14T08:32:13;102844.66;;;2.76;100.00
48553;BME280;34335;51.566;6.994;2023-02-14T08:34:39;102849.00;;;3.04;100.00
48553;BME280;34335;51.566;6.994;2023-02-14T08:37:05;102845.53;;;3.17;100.00
48553;BME280;34335;51.566;6.994;2023-02-14T08:39:30;102849.47;;;3.38;100.00
48553;BME280;34335;51.566;6.994;2023-02-14T08:41:57;102839.97;;;3.51;100.00
48553;BME280;34335;51.566;6.994;2023-02-14T08:44:22;102846.41;;;3.72;100.00
48553;BME280;34335;51.566;6.994;2023-02-14T08:46:48;102848.88;;;3.99;100.00
48553;BME280;34335;51.566;6.994;2023-02-14T08:49:14;102842.53;;;4.08;100.00
48553;BME280;34335;51.566;6.994;2023-02-14T08:51:39;102842.56;;;4.23;100.00
48553;BME280;34335;51.566;6.994;2023-02-14T08:54:04;102849.19;;;4.19;100.00
48553;BME280;34335;51.566;6.994;2023-02-14T08:56:29;102848.63;;;4.53;100.00
48553;BME280;34335;51.566;6.994;2023-02-14T08:58:55;102847.13;;;4.72;100.00
48553;BME280;34335;51.566;6.994;2023-02-14T09:01:20;102840.19;;;4.71;100.00
48553;BME280;34335;51.566;6.994;2023-02-14T09:03:45;102840.53;;;4.77;100.00
48553;BME280;34335;51.566;6.994;2023-02-14T09:06:13;102839.13;;;4.82;100.00
48553;BME280;34335;51.566;6.994;2023-02-14T09:08:41;102839.56;;;4.90;100.00
48553;BME280;34335;51.566;6.994;2023-02-14T09:11:08;102838.81;;;5.07;100.00
48553;BME280;34335;51.566;6.994;2023-02-14T09:13:33;102831.66;;;5.18;100.00
48553;BME280;34335;51.566;6.994;2023-02-14T09:16:03;102838.31;;;4.83;100.00
48553;BME280;34335;51.566;6.994;2023-02-14T09:18:28;102825.72;;;5.36;100.00
48553;BME280;34335;51.566;6.994;2023-02-14T09:20:53;102830.84;;;5.19;100.00
48553;BME280;34335;51.566;6.994;2023-02-14T09:23:19;102824.63;;;5.47;100.00
48553;BME280;34335;51.566;6.994;2023-02-14T09:25:44;102816.88;;;5.64;100.00
48553;BME280;34335;51.566;6.994;2023-02-14T09:28:09;102813.94;;;5.24;100.00
48553;BME280;34335;51.566;6.994;2023-02-14T09:30:35;102805.31;;;5.72;100.00
48553;BME280;34335;51.566;6.994;2023-02-14T09:33:00;102802.22;;;5.96;100.00
48553;BME280;34335;51.566;6.994;2023-02-14T09:35:28;102804.63;;;5.43;100.00
48553;BME280;34335;51.566;6.994;2023-02-14T09:37:54;102802.22;;;5.79;100.00
48553;BME280;34335;51.566;6.994;2023-02-14T09:40:37;102795.59;;;6.17;100.00
48553;BME280;34335;51.566;6.994;2023-02-14T09:43:11;102801.19;;;6.43;100.00
48553;BME280;34335;51.566;6.994;2023-02-14T09:45:42;102809.72;;;5.74;100.00
48553;BME280;34335;51.566;6.994;2023-02-14T09:48:38;102809.50;;;6.19;100.00
48553;BME280;34335;51.566;6.994;2023-02-14T09:51:38;102801.63;;;6.52;100.00
48553;BME280;34335;51.566;6.994;2023-02-14T09:54:13;102806.69;;;6.85;100.00
48553;BME280;34335;51.566;6.994;2023-02-14T09:56:56;102802.53;;;6.53;100.00
48553;BME280;34335;51.566;6.994;2023-02-14T10:01:57;102794.94;;;6.74;100.00
48553;BME280;34335;51.566;6.994;2023-02-14T10:04:31;102795.66;;;6.53;100.00
48553;BME280;34335;51.566;6.994;2023-02-14T10:13:03;102800.16;;;7.49;100.00
48553;BME280;34335;51.566;6.994;2023-02-14T10:15:37;102799.41;;;7.52;100.00
48553;BME280;34335;51.566;6.994;2023-02-14T10:20:39;102797.69;;;7.33;100.00
48553;BME280;34335;51.566;6.994;2023-02-14T10:23:28;102793.34;;;7.52;100.00
48553;BME280;34335;51.566;6.994;2023-02-14T10:26:17;102785.72;;;8.56;100.00
48553;BME280;34335;51.566;6.994;2023-02-14T10:28:47;102785.38;;;8.27;100.00
48553;BME280;34335;51.566;6.994;2023-02-14T10:31:20;102790.78;;;8.53;100.00
48553;BME280;34335;51.566;6.994;2023-02-14T10:33:51;102785.09;;;9.06;100.00
48553;BME280;34335;51.566;6.994;2023-02-14T10:36:36;102791.78;;;9.00;100.00
48553;BME280;34335;51.566;6.994;2023-02-14T10:42:12;102785.94;;;9.06;100.00
48553;BME280;34335;51.566;6.994;2023-02-14T10:45:12;102779.13;;;9.55;100.00
48553;BME280;34335;51.566;6.994;2023-02-14T10:50:58;102776.47;;;9.78;100.00
48553;BME280;34335;51.566;6.994;2023-02-14T10:53:48;102771.91;;;9.96;100.00
48553;BME280;34335;51.566;6.994;2023-02-14T10:56:21;102768.13;;;10.12;100.00
48553;BME280;34335;51.566;6.994;2023-02-14T10:58:50;102765.13;;;10.00;100.00
48553;BME280;34335;51.566;6.994;2023-02-14T11:01:17;102767.75;;;10.27;100.00
48553;BME280;34335;51.566;6.994;2023-02-14T11:03:55;102767.34;;;10.15;100.00
48553;BME280;34335;51.566;6.994;2023-02-14T11:06:28;102763.84;;;10.13;100.00
48553;BME280;34335;51.566;6.994;2023-02-14T11:08:53;102750.38;;;9.99;100.00
48553;BME280;34335;51.566;6.994;2023-02-14T11:11:37;102754.72;;;10.26;100.00
48553;BME280;34335;51.566;6.994;2023-02-14T11:14:29;102747.50;;;10.43;100.00
48553;BME280;34335;51.566;6.994;2023-02-14T11:16:57;102744.16;;;10.74;100.00
48553;BME280;34335;51.566;6.994;2023-02-14T11:19:32;102738.75;;;10.68;100.00
48553;BME280;34335;51.566;6.994;2023-02-14T11:22:03;102739.91;;;11.07;100.00
48553;BME280;34335;51.566;6.994;2023-02-14T11:24:37;102749.78;;;11.17;100.00
48553;BME280;34335;51.566;6.994;2023-02-14T11:27:17;102738.03;;;11.64;100.00
48553;BME280;34335;51.566;6.994;2023-02-14T11:29:45;102737.59;;;11.80;100.00
48553;BME280;34335;51.566;6.994;2023-02-14T11:32:33;102731.34;;;12.07;100.00
48553;BME280;34335;51.566;6.994;2023-02-14T11:35:04;102725.91;;;11.98;100.00
48553;BME280;34335;51.566;6.994;2023-02-14T11:37:36;102720.66;;;11.64;100.00
48553;BME280;34335;51.566;6.994;2023-02-14T11:40:04;102724.88;;;12.26;100.00
48553;BME280;34335;51.566;6.994;2023-02-14T11:42:42;102719.84;;;11.99;98.55
48553;BME280;34335;51.566;6.994;2023-02-14T11:45:35;102712.63;;;13.00;100.00
48553;BME280;34335;51.566;6.994;2023-02-14T11:51:05;102710.38;;;12.38;100.00
48553;BME280;34335;51.566;6.994;2023-02-14T11:53:52;102707.97;;;12.45;100.00
48553;BME280;34335;51.566;6.994;2023-02-14T11:56:20;102698.84;;;13.07;97.89
48553;BME280;34335;51.566;6.994;2023-02-14T11:58:58;102691.22;;;12.37;94.30
48553;BME280;34335;51.566;6.994;2023-02-14T12:01:30;102683.56;;;12.85;99.68
48553;BME280;34335;51.566;6.994;2023-02-14T12:04:00;102681.91;;;12.49;96.02
48553;BME280;34335;51.566;6.994;2023-02-14T12:06:32;102676.53;;;12.81;95.25
48553;BME280;34335;51.566;6.994;2023-02-14T12:09:24;102685.84;;;12.68;90.12
48553;BME280;34335;51.566;6.994;2023-02-14T12:11:54;102676.69;;;12.49;89.69
48553;BME280;34335;51.566;6.994;2023-02-14T12:14:22;102675.13;;;12.57;97.40
48553;BME280;34335;51.566;6.994;2023-02-14T12:17:05;102665.31;;;13.29;92.60
48553;BME280;34335;51.566;6.994;2023-02-14T12:19:45;102654.88;;;14.98;94.40
48553;BME280;34335;51.566;6.994;2023-02-14T12:22:18;102661.13;;;15.09;79.82
48553;BME280;34335;51.566;6.994;2023-02-14T12:24:58;102656.50;;;14.87;100.00
48553;BME280;34335;51.566;6.994;2023-02-14T12:27:30;102653.69;;;14.73;79.55
48553;BME280;34335;51.566;6.994;2023-02-14T12:30:20;102656.81;;;13.90;81.75
48553;BME280;34335;51.566;6.994;2023-02-14T12:32:53;102650.03;;;14.01;82.51
48553;BME280;34335;51.566;6.994;2023-02-14T12:38:29;102647.94;;;13.79;85.63
48553;BME280;34335;51.566;6.994;2023-02-14T12:44:35;102634.53;;;13.13;79.26
48553;BME280;34335;51.566;6.994;2023-02-14T12:47:10;102638.41;;;13.82;84.01
48553;BME280;34335;51.566;6.994;2023-02-14T12:49:58;102641.63;;;13.20;77.62
48553;BME280;34335;51.566;6.994;2023-02-14T12:52:49;102632.38;;;14.48;84.67
48553;BME280;34335;51.566;6.994;2023-02-14T13:06:23;102618.06;;;15.78;73.58
48553;BME280;34335;51.566;6.994;2023-02-14T13:09:17;102616.16;;;17.18;69.54
48553;BME280;34335;51.566;6.994;2023-02-14T13:14:33;102596.91;;;17.12;72.62
48553;BME280;34335;51.566;6.994;2023-02-14T13:17:24;102599.34;;;16.57;66.55
48553;BME280;34335;51.566;6.994;2023-02-14T13:20:36;102595.16;;;17.36;68.80
48553;BME280;34335;51.566;6.994;2023-02-14T13:23:07;102596.03;;;18.05;64.55
48553;BME280;34335;51.566;6.994;2023-02-14T13:25:38;102593.38;;;17.09;70.76
48553;BME280;34335;51.566;6.994;2023-02-14T13:28:12;102587.25;;;18.00;76.12
48553;BME280;34335;51.566;6.994;2023-02-14T13:30:38;102582.88;;;17.80;82.40
48553;BME280;34335;51.566;6.994;2023-02-14T13:33:19;102574.88;;;18.37;76.90
48553;BME280;34335;51.566;6.994;2023-02-14T13:35:48;102573.88;;;18.66;84.12
48553;BME280;34335;51.566;6.994;2023-02-14T13:38:16;102574.84;;;18.42;56.96
48553;BME280;34335;51.566;6.994;2023-02-14T13:40:43;102565.44;;;19.45;68.32
48553;BME280;34335;51.566;6.994;2023-02-14T13:43:09;102564.72;;;20.20;71.14
48553;BME280;34335;51.566;6.994;2023-02-14T13:48:04;102560.47;;;20.10;77.50
48553;BME280;34335;51.566;6.994;2023-02-14T13:50:37;102551.00;;;20.62;52.17
48553;BME280;34335;51.566;6.994;2023-02-14T13:53:02;102550.56;;;21.46;51.16
48553;BME280;34335;51.566;6.994;2023-02-14T13:55:33;102540.34;;;20.65;72.15
48553;BME280;34335;51.566;6.994;2023-02-14T13:58:02;102540.47;;;20.55;59.81
48553;BME280;34335;51.566;6.994;2023-02-14T14:00:39;102547.25;;;19.10;68.43
48553;BME280;34335;51.566;6.994;2023-02-14T14:03:06;102550.00;;;18.94;51.54
48553;BME280;34335;51.566;6.994;2023-02-14T14:21:26;102543.00;;;15.96;53.81
48553;BME280;34335;51.566;6.994;2023-02-14T14:26:38;102539.06;;;17.43;50.95
48553;BME280;34335;51.566;6.994;2023-02-14T14:32:12;102513.41;;;18.42;48.73
48553;BME280;34335;51.566;6.994;2023-02-14T14:34:54;102513.75;;;19.21;55.84
48553;BME280;34335;51.566;6.994;2023-02-14T14:37:22;102515.19;;;20.36;57.62
48553;BME280;34335;51.566;6.994;2023-02-14T14:39:53;102515.66;;;19.99;50.91